createdAt,value
2023-05-23T00:01:22.688Z,97247.47
2023-05-23T00:03:49.778Z,97246.09
2023-05-23T00:06:23.158Z,97243.81
2023-05-23T00:08:50.428Z,97243.97
2023-05-23T00:11:18.870Z,97244.63
2023-05-23T00:13:45.955Z,97249.03
2023-05-23T00:16:12.700Z,97253.09
2023-05-23T00:18:42.917Z,97249.19
2023-05-23T00:21:10.074Z,97251.97
2023-05-23T00:23:36.824Z,97248.31
2023-05-23T00:26:03.754Z,97251.44
2023-05-23T00:28:30.606Z,97258.66
2023-05-23T00:30:57.453Z,97259.13
2023-05-23T00:33:24.247Z,97256.66
2023-05-23T00:35:51.361Z,97256.81
2023-05-23T00:38:18.433Z,97262.22
2023-05-23T00:40:45.617Z,97263.69
2023-05-23T00:43:12.649Z,97262.22
2023-05-23T00:45:39.555Z,97268.56
2023-05-23T00:48:07.974Z,97265.28
2023-05-23T00:50:36.097Z,97271.81
2023-05-23T00:53:03.322Z,97271.00
2023-05-23T00:55:32.341Z,97271.16
2023-05-23T00:57:59.779Z,97269.00
2023-05-23T01:00:27.049Z,97269.81
2023-05-23T01:02:54.722Z,97277.69
2023-05-23T01:05:24.957Z,97281.44
2023-05-23T01:07:52.725Z,97286.19
2023-05-23T01:10:30.762Z,97281.25
2023-05-23T01:13:23.753Z,97279.63
2023-05-23T01:16:14.978Z,97278.44
2023-05-23T01:19:14.371Z,97273.69
2023-05-23T01:21:46.290Z,97280.22
2023-05-23T01:24:50.031Z,97273.75
2023-05-23T01:27:53.791Z,97275.88
2023-05-23T01:30:22.265Z,97270.63
2023-05-23T01:32:54.364Z,97273.41
2023-05-23T01:35:28.446Z,97282.25
2023-05-23T01:37:56.574Z,97274.66
2023-05-23T01:40:25.776Z,97273.03
2023-05-23T01:42:57.091Z,97270.56
2023-05-23T01:45:27.936Z,97277.91
2023-05-23T01:47:56.860Z,97275.16
2023-05-23T01:50:25.920Z,97282.19
2023-05-23T01:52:53.626Z,97277.09
2023-05-23T01:55:26.310Z,97281.34
2023-05-23T01:57:57.336Z,97274.97
2023-05-23T02:00:25.024Z,97278.25
2023-05-23T02:02:51.936Z,97279.78
2023-05-23T02:05:18.772Z,97275.19
2023-05-23T02:07:45.606Z,97274.88
2023-05-23T02:10:12.881Z,97271.28
2023-05-23T02:12:39.951Z,97268.50
2023-05-23T02:15:07.700Z,97281.47
2023-05-23T02:17:34.663Z,97275.25
2023-05-23T02:20:01.528Z,97281.84
2023-05-23T02:22:28.376Z,97281.84
2023-05-23T02:24:55.235Z,97281.84
2023-05-23T02:27:22.010Z,97283.66
2023-05-23T02:29:48.765Z,97284.75
2023-05-23T02:32:15.651Z,97285.56
2023-05-23T02:34:42.424Z,97286.03
2023-05-23T02:37:09.198Z,97291.41
2023-05-23T02:39:36.677Z,97283.72
2023-05-23T02:42:04.619Z,97287.31
2023-05-23T02:44:31.760Z,97283.34
2023-05-23T02:46:58.547Z,97286.94
2023-05-23T02:49:25.677Z,97285.16
2023-05-23T02:51:52.514Z,97293.00
2023-05-23T02:54:19.397Z,97298.22
2023-05-23T02:56:46.681Z,97301.84
2023-05-23T02:59:13.675Z,97296.09
2023-05-23T03:01:40.670Z,97297.00
2023-05-23T03:04:07.673Z,97302.72
2023-05-23T03:06:36.605Z,97307.44
2023-05-23T03:09:03.773Z,97301.53
2023-05-23T03:11:30.563Z,97313.00
2023-05-23T03:13:57.327Z,97312.59
2023-05-23T03:16:24.413Z,97316.19
2023-05-23T03:18:51.219Z,97315.53
2023-05-23T03:21:18.172Z,97317.47
2023-05-23T03:23:44.924Z,97321.34
2023-05-23T03:26:11.792Z,97320.69
2023-05-23T03:28:38.565Z,97328.69
2023-05-23T03:31:05.418Z,97326.38
2023-05-23T03:33:32.181Z,97329.97
2023-05-23T03:35:58.922Z,97331.09
2023-05-23T03:38:27.128Z,97323.25
2023-05-23T03:40:54.008Z,97319.66
2023-05-23T03:43:20.822Z,97328.34
2023-05-23T03:45:47.625Z,97334.00
2023-05-23T03:48:14.516Z,97333.34
2023-05-23T03:50:41.377Z,97342.16
2023-05-23T03:53:08.236Z,97351.28
2023-05-23T03:55:35.006Z,97347.84
2023-05-23T03:58:01.844Z,97352.63
2023-05-23T04:00:28.683Z,97358.59
2023-05-23T04:02:55.789Z,97353.31
2023-05-23T04:05:22.684Z,97348.66
2023-05-23T04:07:51.437Z,97351.97
2023-05-23T04:10:18.522Z,97341.59
2023-05-23T04:12:45.667Z,97341.66
2023-05-23T04:15:12.498Z,97355.09
2023-05-23T04:17:39.312Z,97345.97
2023-05-23T04:20:09.608Z,97347.31
2023-05-23T04:22:36.646Z,97353.91
2023-05-23T04:25:03.912Z,97351.63
2023-05-23T04:27:31.004Z,97350.19
2023-05-23T04:29:58.195Z,97352.03
2023-05-23T04:32:25.281Z,97356.50
2023-05-23T04:34:52.222Z,97360.66
2023-05-23T04:37:25.879Z,97357.59
2023-05-23T04:39:53.446Z,97363.38
2023-05-23T04:42:24.563Z,97367.38
2023-05-23T04:44:58.262Z,97368.88
2023-05-23T04:47:28.032Z,97370.38
2023-05-23T04:49:57.725Z,97377.97
2023-05-23T04:52:25.402Z,97375.41
2023-05-23T04:54:54.058Z,97387.84
2023-05-23T04:57:22.030Z,97391.34
2023-05-23T04:59:48.833Z,97391.50
2023-05-23T05:02:15.593Z,97392.84
2023-05-23T05:04:42.365Z,97395.94
2023-05-23T05:07:09.125Z,97393.31
2023-05-23T05:09:36.308Z,97386.28
2023-05-23T05:12:03.218Z,97393.00
2023-05-23T05:14:30.599Z,97396.78
2023-05-23T05:16:57.676Z,97394.69
2023-05-23T05:19:24.714Z,97396.47
2023-05-23T05:21:52.386Z,97407.97
2023-05-23T05:24:20.982Z,97404.72
2023-05-23T05:26:48.763Z,97404.03
2023-05-23T05:29:16.305Z,97406.81
2023-05-23T05:31:45.129Z,97410.38
2023-05-23T05:34:13.045Z,97416.13
2023-05-23T05:36:45.901Z,97410.03
2023-05-23T05:39:14.158Z,97420.00
2023-05-23T05:41:41.220Z,97409.81
2023-05-23T05:44:09.701Z,97403.66
2023-05-23T05:46:36.484Z,97413.34
2023-05-23T05:49:03.288Z,97406.44
2023-05-23T05:51:30.069Z,97401.84
2023-05-23T05:53:57.058Z,97414.06
2023-05-23T05:56:23.867Z,97409.47
2023-05-23T05:58:50.735Z,97418.34
2023-05-23T06:01:17.555Z,97406.34
2023-05-23T06:03:44.684Z,97414.72
2023-05-23T06:06:11.891Z,97414.53
2023-05-23T06:08:38.787Z,97405.63
2023-05-23T06:11:05.819Z,97408.06
2023-05-23T06:13:32.610Z,97412.94
2023-05-23T06:15:59.436Z,97418.63
2023-05-23T06:18:26.341Z,97412.50
2023-05-23T06:20:53.208Z,97410.47
2023-05-23T06:23:20.066Z,97414.53
2023-05-23T06:25:46.876Z,97413.81
2023-05-23T06:28:13.694Z,97414.63
2023-05-23T06:30:41.017Z,97415.84
2023-05-23T06:33:08.266Z,97418.53
2023-05-23T06:35:35.166Z,97425.22
2023-05-23T06:38:03.699Z,97428.06
2023-05-23T06:40:30.726Z,97430.28
2023-05-23T06:42:57.525Z,97436.19
2023-05-23T06:45:24.388Z,97428.28
2023-05-23T06:47:51.535Z,97432.34
2023-05-23T06:50:21.530Z,97429.47
2023-05-23T06:52:48.528Z,97425.09
2023-05-23T06:55:18.265Z,97427.50
2023-05-23T06:57:45.653Z,97436.06
2023-05-23T07:00:13.848Z,97428.16
2023-05-23T07:02:40.919Z,97433.97
2023-05-23T07:05:08.708Z,97431.31
2023-05-23T07:07:35.609Z,97437.75
2023-05-23T07:10:02.583Z,97438.06
2023-05-23T07:12:29.365Z,97440.97
2023-05-23T07:14:56.243Z,97447.91
2023-05-23T07:17:23.120Z,97450.28
2023-05-23T07:19:50.019Z,97450.09
2023-05-23T07:22:16.787Z,97446.88
2023-05-23T07:24:43.567Z,97454.72
2023-05-23T07:27:10.330Z,97450.00
2023-05-23T07:29:37.089Z,97455.72
2023-05-23T07:32:03.903Z,97456.47
2023-05-23T07:34:30.709Z,97460.00
2023-05-23T07:36:57.465Z,97457.44
2023-05-23T07:39:24.379Z,97458.19
2023-05-23T07:41:51.268Z,97458.41
2023-05-23T07:44:20.213Z,97467.22
2023-05-23T07:46:48.516Z,97476.19
2023-05-23T07:49:15.593Z,97473.16
2023-05-23T07:51:42.788Z,97469.75
2023-05-23T07:54:09.568Z,97471.75
2023-05-23T07:56:38.321Z,97475.84
2023-05-23T07:59:05.500Z,97477.16
2023-05-23T08:01:32.320Z,97481.06
2023-05-23T08:03:59.226Z,97479.91
2023-05-23T08:06:26.114Z,97472.81
2023-05-23T08:08:53.119Z,97488.13
2023-05-23T08:11:19.889Z,97486.84
2023-05-23T08:13:46.768Z,97489.59
2023-05-23T08:16:13.593Z,97481.28
2023-05-23T08:18:40.474Z,97484.66
2023-05-23T08:21:07.322Z,97479.56
2023-05-23T08:23:34.103Z,97485.34
2023-05-23T08:26:00.941Z,97470.84
2023-05-23T08:28:27.784Z,97479.31
2023-05-23T08:30:57.036Z,97480.66
2023-05-23T08:33:23.776Z,97486.25
2023-05-23T08:35:50.873Z,97483.69
2023-05-23T08:38:18.167Z,97481.13
2023-05-23T08:40:52.154Z,97478.28
2023-05-23T08:43:19.684Z,97482.41
2023-05-23T08:45:48.916Z,97477.19
2023-05-23T08:48:19.512Z,97487.97
2023-05-23T08:50:49.270Z,97487.16
2023-05-23T08:53:20.796Z,97490.19
2023-05-23T08:55:51.616Z,97490.06
2023-05-23T08:58:24.746Z,97494.56
2023-05-23T09:00:53.614Z,97493.81
2023-05-23T09:03:21.118Z,97497.44
2023-05-23T09:05:50.159Z,97502.91
2023-05-23T09:08:17.038Z,97495.69
2023-05-23T09:10:43.815Z,97499.09
2023-05-23T09:13:10.586Z,97503.00
2023-05-23T09:15:37.643Z,97503.84
2023-05-23T09:18:04.486Z,97495.81
2023-05-23T09:20:33.275Z,97502.03
2023-05-23T09:23:02.242Z,97502.03
2023-05-23T09:25:30.396Z,97516.22
2023-05-23T09:27:59.972Z,97513.63
2023-05-23T09:30:26.825Z,97509.88
2023-05-23T09:33:05.419Z,97514.22
2023-05-23T09:35:33.046Z,97510.25
2023-05-23T09:37:59.869Z,97507.84
2023-05-23T09:40:34.444Z,97506.06
2023-05-23T09:43:05.494Z,97512.06
2023-05-23T09:45:33.556Z,97514.84
2023-05-23T09:48:01.558Z,97514.97
2023-05-23T09:50:33.798Z,97519.84
2023-05-23T09:53:01.609Z,97525.06
2023-05-23T09:55:28.424Z,97530.59
2023-05-23T09:57:57.268Z,97529.03
2023-05-23T10:00:28.360Z,97522.13
2023-05-23T10:03:11.428Z,97514.16
2023-05-23T10:05:49.992Z,97521.84
2023-05-23T10:08:47.006Z,97525.41
2023-05-23T10:11:13.742Z,97530.22
2023-05-23T10:14:11.422Z,97529.72
2023-05-23T10:16:56.494Z,97524.38
2023-05-23T10:19:32.268Z,97515.59
2023-05-23T10:22:03.581Z,97521.03
2023-05-23T10:24:30.864Z,97530.19
2023-05-23T10:26:58.619Z,97528.06
2023-05-23T10:29:28.826Z,97523.94
2023-05-23T10:31:57.595Z,97529.03
2023-05-23T10:34:38.401Z,97525.59
2023-05-23T10:37:07.691Z,97524.53
2023-05-23T10:40:12.551Z,97531.88
2023-05-23T10:43:01.843Z,97532.81
2023-05-23T10:45:29.061Z,97536.56
2023-05-23T10:47:56.069Z,97541.28
2023-05-23T10:50:37.232Z,97533.31
2023-05-23T10:53:06.032Z,97524.50
2023-05-23T10:55:37.129Z,97518.81
2023-05-23T10:58:23.155Z,97523.97
2023-05-23T11:01:04.957Z,97539.88
2023-05-23T11:04:05.337Z,97539.31
2023-05-23T11:06:45.123Z,97546.94
2023-05-23T11:09:12.958Z,97549.25
2023-05-23T11:11:58.007Z,97552.81
2023-05-23T11:14:55.135Z,97549.91
2023-05-23T11:17:33.931Z,97550.38
2023-05-23T11:20:09.677Z,97540.16
2023-05-23T11:22:36.918Z,97552.84
2023-05-23T11:25:10.298Z,97552.66
2023-05-23T11:27:41.025Z,97543.13
2023-05-23T11:30:15.040Z,97551.28
2023-05-23T11:32:50.500Z,97547.41
2023-05-23T11:35:18.416Z,97546.13
2023-05-23T11:37:45.506Z,97553.47
2023-05-23T11:40:34.438Z,97545.25
2023-05-23T11:43:05.127Z,97552.66
2023-05-23T11:45:34.071Z,97550.75
2023-05-23T11:48:13.806Z,97551.25
2023-05-23T11:50:52.365Z,97557.00
2023-05-23T11:53:22.993Z,97544.34
2023-05-23T11:56:00.150Z,97545.16
2023-05-23T11:58:35.940Z,97547.19
2023-05-23T12:01:10.552Z,97538.25
2023-05-23T12:03:49.248Z,97533.34
2023-05-23T12:06:18.609Z,97550.09
2023-05-23T12:08:47.065Z,97539.22
2023-05-23T12:11:14.330Z,97540.16
2023-05-23T12:13:42.802Z,97554.72
2023-05-23T12:16:09.831Z,97552.91
2023-05-23T12:18:38.218Z,97566.41
2023-05-23T12:21:08.157Z,97557.34
2023-05-23T12:23:36.039Z,97559.25
2023-05-23T12:26:07.702Z,97555.94
2023-05-23T12:28:45.147Z,97555.75
2023-05-23T12:31:21.942Z,97557.91
2023-05-23T12:33:53.101Z,97549.16
2023-05-23T12:36:27.461Z,97550.13
2023-05-23T12:39:03.674Z,97550.38
2023-05-23T12:41:31.977Z,97538.72
2023-05-23T12:43:59.926Z,97534.94
2023-05-23T12:46:27.535Z,97542.84
2023-05-23T12:48:55.240Z,97552.03
2023-05-23T12:51:22.275Z,97555.31
2023-05-23T12:53:49.224Z,97560.88
2023-05-23T12:56:16.136Z,97562.22
2023-05-23T12:58:43.711Z,97573.72
2023-05-23T13:01:11.153Z,97570.22
2023-05-23T13:03:38.083Z,97569.88
2023-05-23T13:06:05.527Z,97565.41
2023-05-23T13:08:32.631Z,97568.56
2023-05-23T13:10:59.521Z,97559.50
2023-05-23T13:13:26.845Z,97564.78
2023-05-23T13:15:54.089Z,97569.25
2023-05-23T13:18:21.001Z,97568.25
2023-05-23T13:20:47.829Z,97565.78
2023-05-23T13:23:14.808Z,97578.31
2023-05-23T13:25:41.817Z,97579.25
2023-05-23T13:28:09.692Z,97574.16
2023-05-23T13:30:36.822Z,97578.44
2023-05-23T13:33:04.860Z,97574.94
2023-05-23T13:35:31.688Z,97575.09
2023-05-23T13:37:58.527Z,97578.72
2023-05-23T13:40:25.541Z,97569.28
2023-05-23T13:42:52.463Z,97575.75
2023-05-23T13:45:20.121Z,97573.63
2023-05-23T13:47:47.284Z,97579.19
2023-05-23T13:50:14.398Z,97579.09
2023-05-23T13:52:44.803Z,97572.47
2023-05-23T13:55:12.822Z,97569.31
2023-05-23T13:57:39.722Z,97569.53
2023-05-23T14:00:08.744Z,97572.25
2023-05-23T14:02:35.777Z,97570.13
2023-05-23T14:05:03.071Z,97575.84
2023-05-23T14:07:29.857Z,97579.19
2023-05-23T14:09:57.503Z,97582.69
2023-05-23T14:12:24.293Z,97571.50
2023-05-23T14:14:51.093Z,97574.75
2023-05-23T14:17:18.442Z,97579.94
2023-05-23T14:19:47.254Z,97576.91
2023-05-23T14:22:14.403Z,97578.91
2023-05-23T14:24:41.204Z,97589.78
2023-05-23T14:27:10.154Z,97591.09
2023-05-23T14:29:38.292Z,97587.13
2023-05-23T14:32:05.418Z,97585.81
2023-05-23T14:34:32.246Z,97591.16
2023-05-23T14:36:59.006Z,97587.72
2023-05-23T14:39:25.830Z,97582.34
2023-05-23T14:41:52.636Z,97578.19
2023-05-23T14:44:19.690Z,97581.50
2023-05-23T14:46:50.211Z,97576.16
2023-05-23T14:49:17.990Z,97578.66
2023-05-23T14:51:49.798Z,97577.78
2023-05-23T14:54:17.439Z,97578.41
2023-05-23T14:56:44.487Z,97573.38
2023-05-23T14:59:11.561Z,97569.84
2023-05-23T15:01:40.193Z,97563.19
2023-05-23T15:04:09.761Z,97560.25
2023-05-23T15:06:38.978Z,97560.50
2023-05-23T15:09:07.262Z,97565.22
2023-05-23T15:11:34.991Z,97566.81
2023-05-23T15:14:01.990Z,97563.38
2023-05-23T15:16:32.670Z,97550.06
2023-05-23T15:19:00.063Z,97564.84
2023-05-23T15:21:27.054Z,97557.75
2023-05-23T15:23:54.665Z,97560.84
2023-05-23T15:26:22.327Z,97558.19
2023-05-23T15:28:49.183Z,97555.72
2023-05-23T15:31:16.026Z,97570.94
2023-05-23T15:33:42.792Z,97566.59
2023-05-23T15:36:10.011Z,97562.94
2023-05-23T15:38:36.775Z,97562.94
2023-05-23T15:41:04.843Z,97562.50
2023-05-23T15:43:32.802Z,97575.38
2023-05-23T15:46:00.610Z,97572.88
2023-05-23T15:48:27.823Z,97573.13
2023-05-23T15:50:55.184Z,97578.38
2023-05-23T15:53:22.149Z,97583.78
2023-05-23T15:55:48.955Z,97583.09
2023-05-23T15:58:15.784Z,97588.22
2023-05-23T16:00:42.931Z,97591.75
2023-05-23T16:03:09.847Z,97585.72
2023-05-23T16:05:36.645Z,97596.59
2023-05-23T16:08:03.453Z,97595.41
2023-05-23T16:10:30.556Z,97589.91
2023-05-23T16:12:57.340Z,97242.00
2023-05-23T16:15:24.113Z,97603.34
2023-05-23T16:17:50.968Z,97607.47
2023-05-23T16:20:17.812Z,97601.88
2023-05-23T16:22:45.735Z,97614.16
2023-05-23T16:25:12.597Z,97605.31
2023-05-23T16:27:40.379Z,97605.75
2023-05-23T16:30:09.793Z,97606.97
2023-05-23T16:32:36.694Z,97620.34
2023-05-23T16:35:03.554Z,97609.84
2023-05-23T16:37:30.366Z,97616.63
2023-05-23T16:39:57.169Z,97616.34
2023-05-23T16:42:23.947Z,97611.38
2023-05-23T16:44:50.794Z,97617.00
2023-05-23T16:47:17.598Z,97619.16
2023-05-23T16:49:44.599Z,97623.63
2023-05-23T16:52:11.355Z,97615.06
2023-05-23T16:54:38.476Z,97622.25
2023-05-23T16:57:05.827Z,97623.25
2023-05-23T16:59:32.720Z,97634.16
2023-05-23T17:01:59.668Z,97633.03
2023-05-23T17:04:26.503Z,97633.69
2023-05-23T17:06:53.335Z,97626.31
2023-05-23T17:09:22.338Z,97635.53
2023-05-23T17:11:50.437Z,97636.69
2023-05-23T17:14:17.521Z,97638.66
2023-05-23T17:16:44.368Z,97648.19
2023-05-23T17:19:11.389Z,97644.28
2023-05-23T17:21:38.365Z,97641.34
2023-05-23T17:24:06.089Z,97643.63
2023-05-23T17:26:32.957Z,97647.59
2023-05-23T17:28:59.810Z,97642.16
2023-05-23T17:31:28.330Z,97646.28
2023-05-23T17:33:57.314Z,97656.19
2023-05-23T17:36:24.225Z,97666.06
2023-05-23T17:38:53.530Z,97668.34
2023-05-23T17:41:23.043Z,97673.28
2023-05-23T17:43:50.210Z,97676.56
2023-05-23T17:46:17.011Z,97672.63
2023-05-23T17:48:47.680Z,97675.59
2023-05-23T17:51:15.878Z,97677.03
2023-05-23T17:53:43.239Z,97689.03
2023-05-23T17:56:10.501Z,97689.03
2023-05-23T17:58:38.530Z,97693.31
2023-05-23T18:01:07.317Z,97687.03
2023-05-23T18:03:34.281Z,97692.28
2023-05-23T18:06:01.100Z,97709.03
2023-05-23T18:08:27.857Z,97703.72
2023-05-23T18:10:54.626Z,97699.63
2023-05-23T18:13:21.438Z,97703.69
2023-05-23T18:15:48.352Z,97709.59
2023-05-23T18:18:19.342Z,97696.41
2023-05-23T18:20:46.334Z,97722.34
2023-05-23T18:23:13.223Z,97722.78
2023-05-23T18:25:40.146Z,97726.03
2023-05-23T18:28:06.965Z,97729.13
2023-05-23T18:30:33.882Z,97735.69
2023-05-23T18:33:00.974Z,97730.91
2023-05-23T18:35:28.101Z,97730.53
2023-05-23T18:37:54.908Z,97725.09
2023-05-23T18:40:23.774Z,97729.31
2023-05-23T18:42:50.739Z,97736.66
2023-05-23T18:45:17.621Z,97724.00
2023-05-23T18:47:44.867Z,97732.19
2023-05-23T18:50:12.832Z,97738.41
2023-05-23T18:52:39.949Z,97737.75
2023-05-23T18:55:07.743Z,97734.44
2023-05-23T18:57:34.588Z,97738.06
2023-05-23T19:00:03.823Z,97740.03
2023-05-23T19:02:30.867Z,97745.59
2023-05-23T19:04:57.735Z,97751.94
2023-05-23T19:07:24.570Z,97761.09
2023-05-23T19:09:51.370Z,97761.94
2023-05-23T19:12:19.528Z,97751.75
2023-05-23T19:14:46.503Z,97757.31
2023-05-23T19:17:13.322Z,97757.31
2023-05-23T19:19:40.150Z,97774.03
2023-05-23T19:22:07.162Z,97777.63
2023-05-23T19:24:34.093Z,97771.00
2023-05-23T19:27:02.145Z,97777.56
2023-05-23T19:29:28.946Z,97778.53
2023-05-23T19:31:55.965Z,97784.22
2023-05-23T19:34:22.802Z,97778.44
2023-05-23T19:36:49.778Z,97782.22
2023-05-23T19:39:16.658Z,97793.16
2023-05-23T19:41:43.557Z,97793.41
2023-05-23T19:44:11.647Z,97801.56
2023-05-23T19:46:38.501Z,97795.34
2023-05-23T19:49:08.012Z,97809.44
2023-05-23T19:51:36.500Z,97813.06
2023-05-23T19:54:03.591Z,97805.34
2023-05-23T19:56:30.412Z,97811.72
2023-05-23T19:58:57.169Z,97811.03
2023-05-23T20:01:23.976Z,97825.41
2023-05-23T20:03:50.822Z,97814.22
2023-05-23T20:06:17.679Z,97819.47
2023-05-23T20:08:44.436Z,97835.38
2023-05-23T20:11:12.462Z,97832.22
2023-05-23T20:13:39.342Z,97832.53
2023-05-23T20:16:08.130Z,97839.16
2023-05-23T20:18:34.983Z,97847.50
2023-05-23T20:21:04.240Z,97852.31
2023-05-23T20:23:31.782Z,97850.97
2023-05-23T20:25:58.559Z,97852.09
2023-05-23T20:28:25.325Z,97860.78
2023-05-23T20:30:52.384Z,97863.84
2023-05-23T20:33:19.950Z,97858.06
2023-05-23T20:35:49.674Z,97866.22
2023-05-23T20:38:18.409Z,97872.56
2023-05-23T20:40:46.239Z,97871.06
2023-05-23T20:43:14.927Z,97875.50
2023-05-23T20:45:42.134Z,97876.56
2023-05-23T20:48:09.240Z,97879.78
2023-05-23T20:50:36.544Z,97884.66
2023-05-23T20:53:03.553Z,97890.44
2023-05-23T20:55:30.420Z,97889.09
2023-05-23T20:57:57.342Z,97899.16
2023-05-23T21:00:24.263Z,97901.38
2023-05-23T21:02:51.384Z,97897.66
2023-05-23T21:05:18.333Z,97900.66
2023-05-23T21:07:45.228Z,97899.16
2023-05-23T21:10:12.005Z,97903.97
2023-05-23T21:12:39.153Z,97902.34
2023-05-23T21:15:06.793Z,97904.56
2023-05-23T21:17:33.569Z,97900.72
2023-05-23T21:20:00.389Z,97896.56
2023-05-23T21:22:27.136Z,97902.09
2023-05-23T21:24:53.883Z,97898.50
2023-05-23T21:27:20.641Z,97902.09
2023-05-23T21:29:47.479Z,97904.84
2023-05-23T21:32:14.251Z,97898.63
2023-05-23T21:34:41.487Z,97902.22
2023-05-23T21:37:08.323Z,97907.88
2023-05-23T21:39:50.008Z,97899.22
2023-05-23T21:42:18.467Z,97902.09
2023-05-23T21:47:12.168Z,97900.44
2023-05-23T21:49:40.261Z,97896.31
2023-05-23T21:52:07.074Z,97893.81
2023-05-23T21:54:33.843Z,97895.91
2023-05-23T21:57:00.650Z,97890.81
2023-05-23T21:59:27.417Z,97888.59
2023-05-23T22:01:54.211Z,97899.47
2023-05-23T22:04:20.961Z,97898.25
2023-05-23T22:06:47.733Z,97890.41
2023-05-23T22:09:15.249Z,97895.19
2023-05-23T22:11:42.895Z,97908.97
2023-05-23T22:14:10.148Z,97909.34
2023-05-23T22:16:39.803Z,97904.38
2023-05-23T22:19:09.492Z,97913.06
2023-05-23T22:21:39.013Z,97915.56
2023-05-23T22:24:06.091Z,97911.97
2023-05-23T22:26:32.849Z,97918.84
2023-05-23T22:28:59.779Z,97907.56
2023-05-23T22:31:28.744Z,97913.19
2023-05-23T22:33:55.810Z,97918.69
2023-05-23T22:36:23.271Z,97914.44
2023-05-23T22:38:50.770Z,97909.47
2023-05-23T22:41:17.902Z,97911.41
2023-05-23T22:43:45.030Z,97905.59
2023-05-23T22:46:11.894Z,97908.44
2023-05-23T22:48:39.045Z,97909.53
2023-05-23T22:51:07.747Z,97913.25
2023-05-23T22:53:34.533Z,97914.34
2023-05-23T22:56:01.334Z,97907.19
2023-05-23T22:58:28.077Z,97913.25
2023-05-23T23:00:54.829Z,97913.13
2023-05-23T23:03:21.711Z,97908.72
2023-05-23T23:05:48.544Z,97911.84
2023-05-23T23:08:16.093Z,97910.47
2023-05-23T23:10:43.901Z,97909.09
2023-05-23T23:13:13.511Z,97910.88
2023-05-23T23:15:42.504Z,97904.56
2023-05-23T23:18:09.670Z,97909.50
2023-05-23T23:20:36.734Z,97909.38
2023-05-23T23:23:03.673Z,97906.06
2023-05-23T23:25:30.505Z,97907.03
2023-05-23T23:27:57.258Z,97904.41
2023-05-23T23:30:24.350Z,97908.00
2023-05-23T23:32:51.241Z,97908.00
2023-05-23T23:35:18.068Z,97906.34
2023-05-23T23:37:44.858Z,97902.75
2023-05-23T23:40:12.295Z,97905.38
2023-05-23T23:42:39.188Z,97906.19
2023-05-23T23:45:06.497Z,97912.94
2023-05-23T23:47:33.312Z,97906.91
2023-05-23T23:50:00.114Z,97911.97
2023-05-23T23:52:27.829Z,97907.84
2023-05-23T23:54:54.799Z,97908.00
2023-05-23T23:57:21.757Z,97909.09
2023-05-23T23:59:48.627Z,97905.66
